createdAt,value
2018-06-16T00:00:50.646Z,0.00
2018-06-16T00:01:50.707Z,0.00
2018-06-16T00:02:50.769Z,0.00
2018-06-16T00:03:50.826Z,0.00
2018-06-16T00:04:50.888Z,0.00
2018-06-16T00:05:50.948Z,0.00
2018-06-16T00:06:51.021Z,0.00
2018-06-16T00:07:51.068Z,0.00
2018-06-16T00:08:51.128Z,0.00
2018-06-16T00:09:51.192Z,0.00
2018-06-16T00:10:51.249Z,0.00
2018-06-16T00:11:51.309Z,0.00
2018-06-16T00:12:51.368Z,0.00
2018-06-16T00:13:51.430Z,0.00
2018-06-16T00:14:51.741Z,0.00
2018-06-16T00:15:51.549Z,0.00
2018-06-16T00:16:51.609Z,0.00
2018-06-16T00:17:51.674Z,0.00
2018-06-16T00:18:51.731Z,0.00
2018-06-16T00:19:51.796Z,0.00
2018-06-16T00:20:51.851Z,0.00
2018-06-16T00:21:51.910Z,0.00
2018-06-16T00:22:51.971Z,0.00
2018-06-16T00:23:52.032Z,0.00
2018-06-16T00:24:52.093Z,0.00
2018-06-16T00:25:52.151Z,0.00
2018-06-16T00:26:52.213Z,0.00
2018-06-16T00:27:52.289Z,0.00
2018-06-16T00:28:52.333Z,0.00
2018-06-16T00:29:52.393Z,0.00
2018-06-16T00:30:52.453Z,0.00
2018-06-16T00:31:52.513Z,0.00
2018-06-16T00:32:52.573Z,0.00
2018-06-16T00:33:52.634Z,0.00
2018-06-16T00:34:52.692Z,0.00
2018-06-16T00:35:52.754Z,0.00
2018-06-16T00:36:52.813Z,0.00
2018-06-16T00:37:52.873Z,0.00
2018-06-16T00:38:52.934Z,0.00
2018-06-16T00:39:52.996Z,0.00
2018-06-16T00:40:53.054Z,0.00
2018-06-16T00:41:53.114Z,0.00
2018-06-16T00:42:53.174Z,0.00
2018-06-16T00:43:53.234Z,0.00
2018-06-16T00:44:53.294Z,0.00
2018-06-16T00:45:53.355Z,0.00
2018-06-16T00:46:53.416Z,0.00
2018-06-16T00:47:53.475Z,0.00
2018-06-16T00:48:53.535Z,0.00
2018-06-16T00:49:53.595Z,0.00
2018-06-16T00:50:53.656Z,0.00
2018-06-16T00:51:53.716Z,0.00
2018-06-16T00:52:53.792Z,0.00
2018-06-16T00:53:53.837Z,0.00
2018-06-16T00:54:53.898Z,0.00
2018-06-16T00:55:53.957Z,0.00
2018-06-16T00:56:54.017Z,0.00
2018-06-16T00:57:54.077Z,0.00
2018-06-16T00:58:54.139Z,0.00
2018-06-16T00:59:54.197Z,0.00
2018-06-16T01:00:54.257Z,0.00
2018-06-16T01:01:54.319Z,0.00
2018-06-16T01:02:54.379Z,0.00
2018-06-16T01:03:54.438Z,0.00
2018-06-16T01:04:54.498Z,0.00
2018-06-16T01:05:54.558Z,0.00
2018-06-16T01:06:54.620Z,0.00
2018-06-16T01:07:54.677Z,0.00
2018-06-16T01:08:54.743Z,0.00
2018-06-16T01:09:54.800Z,0.00
2018-06-16T01:10:54.860Z,0.00
2018-06-16T01:11:54.919Z,0.00
2018-06-16T01:12:54.980Z,0.00
2018-06-16T01:13:55.042Z,0.00
2018-06-16T01:14:55.101Z,0.00
2018-06-16T01:15:55.161Z,0.00
2018-06-16T01:16:55.221Z,0.00
2018-06-16T01:17:55.281Z,0.00
2018-06-16T01:18:55.342Z,0.00
2018-06-16T01:19:55.401Z,0.00
2018-06-16T01:20:55.462Z,0.00
2018-06-16T01:21:55.521Z,0.00
2018-06-16T01:22:55.582Z,0.00
2018-06-16T01:23:55.644Z,0.00
2018-06-16T01:24:55.705Z,0.00
2018-06-16T01:25:55.762Z,0.00
2018-06-16T01:26:55.822Z,0.00
2018-06-16T01:27:55.883Z,0.00
2018-06-16T01:28:55.945Z,0.00
2018-06-16T01:29:56.004Z,0.00
2018-06-16T01:30:56.066Z,0.00
2018-06-16T01:31:56.123Z,0.00
2018-06-16T01:32:56.184Z,0.00
2018-06-16T01:33:56.247Z,0.00
2018-06-16T01:34:56.308Z,0.00
2018-06-16T01:35:56.364Z,0.00
2018-06-16T01:36:56.425Z,0.00
2018-06-16T01:37:56.483Z,0.00
2018-06-16T01:38:56.546Z,0.00
2018-06-16T01:39:56.604Z,0.00
2018-06-16T01:40:56.665Z,0.00
2018-06-16T01:41:56.725Z,0.00
2018-06-16T01:42:56.785Z,0.00
2018-06-16T01:43:56.844Z,0.00
2018-06-16T01:44:56.903Z,0.00
2018-06-16T01:45:56.965Z,0.00
2018-06-16T01:46:57.025Z,0.00
2018-06-16T01:47:57.085Z,0.00
2018-06-16T01:48:57.146Z,0.00
2018-06-16T01:49:57.206Z,0.00
2018-06-16T01:50:57.265Z,0.00
2018-06-16T01:51:57.475Z,0.00
2018-06-16T01:52:57.384Z,0.00
2018-06-16T01:53:57.445Z,0.00
2018-06-16T01:54:57.506Z,0.00
2018-06-16T01:55:57.565Z,0.00
2018-06-16T01:56:57.625Z,0.00
2018-06-16T01:57:57.685Z,0.00
2018-06-16T01:58:57.745Z,0.00
2018-06-16T01:59:57.804Z,0.00
2018-06-16T02:00:57.865Z,0.00
2018-06-16T02:01:57.927Z,0.00
2018-06-16T02:02:57.985Z,0.00
2018-06-16T02:03:58.045Z,0.00
2018-06-16T02:04:58.108Z,0.00
2018-06-16T02:05:58.166Z,0.00
2018-06-16T02:06:58.225Z,0.00
2018-06-16T02:07:58.287Z,0.00
2018-06-16T02:08:58.345Z,0.00
2018-06-16T02:09:58.406Z,0.00
2018-06-16T02:10:58.465Z,0.00
2018-06-16T02:11:58.525Z,0.00
2018-06-16T02:12:58.585Z,0.00
2018-06-16T02:13:58.647Z,0.00
2018-06-16T02:14:58.705Z,0.00
2018-06-16T02:15:58.764Z,0.00
2018-06-16T02:16:58.824Z,0.00
2018-06-16T02:17:58.885Z,0.00
2018-06-16T02:18:58.945Z,0.00
2018-06-16T02:19:59.005Z,0.00
2018-06-16T02:20:59.064Z,0.00
2018-06-16T02:21:59.124Z,0.00
2018-06-16T02:22:59.185Z,0.00
2018-06-16T02:23:59.243Z,0.00
2018-06-16T02:24:59.303Z,0.00
2018-06-16T02:25:59.364Z,0.00
2018-06-16T02:26:59.433Z,0.00
2018-06-16T02:27:59.483Z,0.00
2018-06-16T02:28:59.543Z,0.00
2018-06-16T02:29:59.604Z,0.00
2018-06-16T02:30:59.667Z,0.00
2018-06-16T02:31:59.724Z,0.00
2018-06-16T02:32:59.783Z,0.00
2018-06-16T02:33:59.843Z,0.00
2018-06-16T02:34:59.903Z,0.00
2018-06-16T02:35:59.963Z,0.00
2018-06-16T02:37:00.025Z,0.00
2018-06-16T02:38:00.095Z,0.00
2018-06-16T02:39:00.142Z,0.00
2018-06-16T02:40:00.210Z,4.00
2018-06-16T02:41:00.262Z,4.00
2018-06-16T02:42:00.321Z,4.00
2018-06-16T02:43:00.381Z,4.00
2018-06-16T02:44:00.440Z,0.00
2018-06-16T02:45:00.500Z,4.00
2018-06-16T02:46:00.560Z,4.00
2018-06-16T02:47:00.620Z,8.00
2018-06-16T02:48:00.679Z,4.00
2018-06-16T02:49:00.741Z,8.00
2018-06-16T02:50:00.798Z,4.00
2018-06-16T02:51:00.860Z,8.00
2018-06-16T02:52:00.918Z,8.00
2018-06-16T02:53:00.978Z,8.00
2018-06-16T02:54:01.048Z,12.00
2018-06-16T02:55:01.097Z,16.00
2018-06-16T02:56:01.156Z,16.00
2018-06-16T02:57:01.223Z,20.00
2018-06-16T02:58:01.277Z,24.00
2018-06-16T02:59:01.342Z,24.00
2018-06-16T03:00:01.397Z,24.00
2018-06-16T03:01:01.456Z,28.00
2018-06-16T03:02:01.515Z,32.00
2018-06-16T03:03:01.577Z,36.00
2018-06-16T03:04:01.634Z,40.00
2018-06-16T03:05:01.694Z,44.00
2018-06-16T03:06:01.755Z,52.00
2018-06-16T03:07:01.814Z,60.00
2018-06-16T03:08:01.872Z,64.00
2018-06-16T03:09:01.934Z,72.00
2018-06-16T03:10:01.995Z,80.00
2018-06-16T03:11:02.052Z,88.00
2018-06-16T03:12:02.112Z,100.00
2018-06-16T03:13:02.172Z,116.00
2018-06-16T03:14:02.485Z,128.00
2018-06-16T03:15:02.329Z,144.00
2018-06-16T03:16:02.352Z,160.00
2018-06-16T03:17:02.411Z,180.00
2018-06-16T03:18:02.470Z,196.00
2018-06-16T03:19:02.781Z,212.00
2018-06-16T03:20:02.590Z,228.00
2018-06-16T03:21:02.647Z,244.00
2018-06-16T03:22:02.708Z,256.00
2018-06-16T03:23:02.768Z,268.00
2018-06-16T03:24:02.826Z,284.00
2018-06-16T03:25:02.886Z,300.00
2018-06-16T03:26:02.948Z,316.00
2018-06-16T03:27:03.013Z,336.00
2018-06-16T03:28:03.066Z,360.00
2018-06-16T03:29:03.125Z,384.00
2018-06-16T03:30:03.186Z,416.00
2018-06-16T03:31:03.246Z,444.00
2018-06-16T03:32:03.305Z,480.00
2018-06-16T03:33:03.364Z,516.00
2018-06-16T03:34:03.424Z,544.00
2018-06-16T03:35:03.484Z,576.00
2018-06-16T03:36:03.545Z,608.00
2018-06-16T03:37:03.604Z,640.00
2018-06-16T03:38:03.664Z,672.00
2018-06-16T03:39:04.266Z,704.00
2018-06-16T03:40:04.408Z,736.00
2018-06-16T03:41:04.708Z,764.00
2018-06-16T03:42:04.476Z,796.00
2018-06-16T03:43:04.528Z,828.00
2018-06-16T03:44:04.593Z,860.00
2018-06-16T03:45:04.660Z,876.00
2018-06-16T03:46:04.830Z,892.00
2018-06-16T03:47:04.202Z,928.00
2018-06-16T03:48:04.262Z,980.00
2018-06-16T03:49:04.321Z,1040.00
2018-06-16T03:50:04.382Z,1124.00
2018-06-16T03:51:04.442Z,1224.00
2018-06-16T03:52:04.500Z,1300.00
2018-06-16T03:53:04.562Z,1372.00
2018-06-16T03:54:04.622Z,1432.00
2018-06-16T03:55:04.690Z,1496.00
2018-06-16T03:56:04.742Z,1556.00
2018-06-16T03:57:04.801Z,1600.00
2018-06-16T03:58:04.861Z,1640.00
2018-06-16T03:59:04.921Z,1692.00
2018-06-16T04:00:04.981Z,1764.00
2018-06-16T04:01:05.041Z,1808.00
2018-06-16T04:02:05.101Z,1816.00
2018-06-16T04:03:05.162Z,1808.00
2018-06-16T04:04:05.224Z,1812.00
2018-06-16T04:05:05.282Z,1812.00
2018-06-16T04:06:05.341Z,1796.00
2018-06-16T04:07:05.402Z,1768.00
2018-06-16T04:08:05.462Z,1736.00
2018-06-16T04:09:05.772Z,1692.00
2018-06-16T04:10:05.582Z,1640.00
2018-06-16T04:11:06.192Z,1576.00
2018-06-16T04:12:06.304Z,1516.00
2018-06-16T04:13:06.335Z,1468.00
2018-06-16T04:14:06.416Z,1452.00
2018-06-16T04:15:06.386Z,1468.00
2018-06-16T04:16:06.558Z,1512.00
2018-06-16T04:17:06.526Z,1568.00
2018-06-16T04:18:06.062Z,1620.00
2018-06-16T04:19:06.121Z,1664.00
2018-06-16T04:20:06.180Z,1692.00
2018-06-16T04:21:06.241Z,1728.00
2018-06-16T04:22:06.303Z,1780.00
2018-06-16T04:23:06.366Z,1856.00
2018-06-16T04:24:06.501Z,1948.00
2018-06-16T04:25:06.483Z,2048.00
2018-06-16T04:26:06.550Z,2140.00
2018-06-16T04:27:06.603Z,2224.00
2018-06-16T04:28:06.662Z,2304.00
2018-06-16T04:29:06.722Z,2344.00
2018-06-16T04:30:06.790Z,2384.00
2018-06-16T04:31:06.844Z,2444.00
2018-06-16T04:32:06.904Z,2536.00
2018-06-16T04:33:06.964Z,2628.00
2018-06-16T04:34:07.023Z,2748.00
2018-06-16T04:35:07.089Z,2860.00
2018-06-16T04:36:07.143Z,2960.00
2018-06-16T04:37:07.203Z,3028.00
2018-06-16T04:38:07.263Z,3076.00
2018-06-16T04:39:07.325Z,3108.00
2018-06-16T04:40:07.384Z,3116.00
2018-06-16T04:41:07.444Z,3136.00
2018-06-16T04:42:07.504Z,3164.00
2018-06-16T04:43:07.564Z,3212.00
2018-06-16T04:44:07.624Z,3276.00
2018-06-16T04:45:07.684Z,3348.00
2018-06-16T04:46:07.745Z,3416.00
2018-06-16T04:47:07.806Z,3448.00
2018-06-16T04:48:08.022Z,3452.00
2018-06-16T04:49:07.925Z,3448.00
2018-06-16T04:50:07.990Z,3476.00
2018-06-16T04:51:08.047Z,3584.00
2018-06-16T04:52:08.105Z,3768.00
2018-06-16T04:53:08.172Z,3996.00
2018-06-16T04:54:08.228Z,4212.00
2018-06-16T04:55:08.287Z,4388.00
2018-06-16T04:56:08.347Z,4520.00
2018-06-16T04:57:08.408Z,4644.00
2018-06-16T04:58:08.470Z,4776.00
2018-06-16T04:59:08.552Z,4916.00
2018-06-16T05:00:08.590Z,5068.00
2018-06-16T05:01:08.650Z,5220.00
2018-06-16T05:02:08.711Z,5316.00
2018-06-16T05:03:08.771Z,5316.00
2018-06-16T05:04:08.830Z,5236.00
2018-06-16T05:05:09.252Z,5172.00
2018-06-16T05:06:08.952Z,5168.00
2018-06-16T05:07:09.013Z,5248.00
2018-06-16T05:08:09.074Z,5372.00
2018-06-16T05:09:09.134Z,5476.00
2018-06-16T05:10:09.198Z,5540.00
2018-06-16T05:11:09.255Z,5592.00
2018-06-16T05:12:09.316Z,5652.00
2018-06-16T05:13:09.376Z,5748.00
2018-06-16T05:14:09.438Z,5872.00
2018-06-16T05:15:09.499Z,5984.00
2018-06-16T05:16:09.709Z,6072.00
2018-06-16T05:17:09.622Z,6148.00
2018-06-16T05:18:09.681Z,6208.00
2018-06-16T05:19:09.750Z,6228.00
2018-06-16T05:20:09.803Z,6228.00
2018-06-16T05:21:09.862Z,6276.00
2018-06-16T05:22:10.074Z,6400.00
2018-06-16T05:23:09.985Z,6584.00
2018-06-16T05:24:10.057Z,6776.00
2018-06-16T05:25:10.106Z,6952.00
2018-06-16T05:26:10.167Z,7100.00
2018-06-16T05:27:10.478Z,7208.00
2018-06-16T05:28:10.289Z,7240.00
2018-06-16T05:29:10.350Z,7228.00
2018-06-16T05:30:10.410Z,7156.00
2018-06-16T05:31:10.472Z,7068.00
2018-06-16T05:32:10.535Z,7012.00
2018-06-16T05:33:10.593Z,7044.00
2018-06-16T05:34:10.655Z,7096.00
2018-06-16T05:35:10.716Z,7100.00
2018-06-16T05:36:10.777Z,7068.00
2018-06-16T05:37:10.838Z,7028.00
2018-06-16T05:38:10.898Z,6984.00
2018-06-16T05:39:10.961Z,6944.00
2018-06-16T05:40:11.023Z,6924.00
2018-06-16T05:41:11.083Z,6908.00
2018-06-16T05:42:11.143Z,6884.00
2018-06-16T05:43:11.206Z,6892.00
2018-06-16T05:44:11.267Z,6952.00
2018-06-16T05:45:11.330Z,7040.00
2018-06-16T05:46:11.390Z,7148.00
2018-06-16T05:47:11.451Z,7268.00
2018-06-16T05:48:11.511Z,7364.00
2018-06-16T05:49:11.573Z,7392.00
2018-06-16T05:50:11.634Z,7404.00
2018-06-16T05:51:11.696Z,7464.00
2018-06-16T05:52:11.757Z,7612.00
2018-06-16T05:53:11.836Z,7828.00
2018-06-16T05:54:11.891Z,7992.00
2018-06-16T05:55:11.942Z,8196.00
2018-06-16T05:56:12.002Z,8400.00
2018-06-16T05:57:12.065Z,8676.00
2018-06-16T05:58:12.126Z,9016.00
2018-06-16T05:59:12.188Z,9312.00
2018-06-16T06:00:12.249Z,9484.00
2018-06-16T06:01:12.311Z,9436.00
2018-06-16T06:02:12.372Z,9260.00
2018-06-16T06:03:12.435Z,9132.00
2018-06-16T06:04:12.495Z,9068.00
2018-06-16T06:05:12.558Z,9056.00
2018-06-16T06:06:12.620Z,9076.00
2018-06-16T06:07:12.681Z,9040.00
2018-06-16T06:08:12.749Z,8964.00
2018-06-16T06:09:12.805Z,8908.00
2018-06-16T06:10:12.909Z,8820.00
2018-06-16T06:11:12.934Z,8656.00
2018-06-16T06:12:12.991Z,8616.00
2018-06-16T06:13:13.612Z,8556.00
2018-06-16T06:14:13.115Z,8664.00
2018-06-16T06:15:13.184Z,8744.00
2018-06-16T06:16:13.389Z,8884.00
2018-06-16T06:17:13.300Z,9132.00
2018-06-16T06:18:13.362Z,9340.00
2018-06-16T06:19:13.425Z,9640.00
2018-06-16T06:20:13.486Z,9808.00
2018-06-16T06:21:13.548Z,9908.00
2018-06-16T06:22:13.611Z,9888.00
2018-06-16T06:23:13.674Z,9816.00
2018-06-16T06:24:13.734Z,9700.00
2018-06-16T06:25:13.798Z,9576.00
2018-06-16T06:26:13.859Z,9552.00
2018-06-16T06:27:13.925Z,9608.00
2018-06-16T06:28:13.984Z,9612.00
2018-06-16T06:29:14.045Z,9544.00
2018-06-16T06:30:14.110Z,9632.00
2018-06-16T06:31:14.171Z,9960.00
2018-06-16T06:32:14.232Z,10428.00
2018-06-16T06:33:14.294Z,10876.00
2018-06-16T06:34:14.356Z,11308.00
2018-06-16T06:35:14.420Z,11596.00
2018-06-16T06:36:14.481Z,12076.00
2018-06-16T06:37:14.555Z,12744.00
2018-06-16T06:38:14.606Z,13340.00
2018-06-16T06:39:14.669Z,13988.00
2018-06-16T06:40:14.732Z,14744.00
2018-06-16T06:41:15.484Z,15432.00
2018-06-16T06:42:15.059Z,16204.00
2018-06-16T06:43:14.919Z,17088.00
2018-06-16T06:44:15.525Z,17216.00
2018-06-16T06:45:15.044Z,17024.00
2018-06-16T06:46:15.714Z,16728.00
2018-06-16T06:47:15.372Z,16584.00
2018-06-16T06:48:15.232Z,16164.00
2018-06-16T06:49:15.294Z,15924.00
2018-06-16T06:50:15.358Z,15628.00
2018-06-16T06:51:15.421Z,15476.00
2018-06-16T06:52:15.484Z,15508.00
2018-06-16T06:53:15.552Z,15464.00
2018-06-16T06:54:15.761Z,15776.00
2018-06-16T06:55:15.679Z,15612.00
2018-06-16T06:56:15.741Z,15284.00
2018-06-16T06:57:15.801Z,15384.00
2018-06-16T06:58:15.865Z,15212.00
2018-06-16T06:59:15.927Z,15268.00
2018-06-16T07:00:15.990Z,15476.00
2018-06-16T07:01:16.054Z,15760.00
2018-06-16T07:02:16.118Z,15984.00
2018-06-16T07:03:16.181Z,16132.00
2018-06-16T07:04:16.243Z,16308.00
2018-06-16T07:05:16.308Z,16508.00
2018-06-16T07:06:16.372Z,16824.00
2018-06-16T07:07:16.436Z,17312.00
2018-06-16T07:08:16.500Z,17408.00
2018-06-16T07:09:16.563Z,16792.00
2018-06-16T07:10:16.628Z,16360.00
2018-06-16T07:11:16.691Z,16020.00
2018-06-16T07:12:16.756Z,15772.00
2018-06-16T07:13:16.818Z,15660.00
2018-06-16T07:14:16.884Z,15700.00
2018-06-16T07:15:16.978Z,15524.00
2018-06-16T07:16:17.011Z,15080.00
2018-06-16T07:17:17.226Z,14700.00
2018-06-16T07:18:17.140Z,14640.00
2018-06-16T07:19:17.206Z,14732.00
2018-06-16T07:20:17.268Z,14996.00
2018-06-16T07:21:17.339Z,15464.00
2018-06-16T07:22:17.397Z,15524.00
2018-06-16T07:23:17.465Z,15416.00
2018-06-16T07:24:17.526Z,15004.00
2018-06-16T07:25:17.591Z,14516.00
2018-06-16T07:26:17.656Z,14348.00
2018-06-16T07:27:17.720Z,14496.00
2018-06-16T07:28:17.783Z,15060.00
2018-06-16T07:29:17.876Z,16072.00
2018-06-16T07:30:17.913Z,17140.00
2018-06-16T07:31:17.980Z,18176.00
2018-06-16T07:32:18.042Z,18496.00
2018-06-16T07:33:18.135Z,18816.00
2018-06-16T07:34:18.172Z,19360.00
2018-06-16T07:35:18.237Z,20192.00
2018-06-16T07:36:18.300Z,20032.00
2018-06-16T07:37:18.365Z,19936.00
2018-06-16T07:38:18.431Z,19296.00
2018-06-16T07:39:18.496Z,18816.00
2018-06-16T07:40:18.710Z,18560.00
2018-06-16T07:41:18.629Z,18112.00
2018-06-16T07:42:18.689Z,17504.00
2018-06-16T07:43:18.756Z,16448.00
2018-06-16T07:44:18.821Z,16000.00
2018-06-16T07:45:18.886Z,15664.00
2018-06-16T07:46:18.951Z,15384.00
2018-06-16T07:47:19.015Z,15228.00
2018-06-16T07:48:19.079Z,15180.00
2018-06-16T07:49:19.145Z,15376.00
2018-06-16T07:50:19.211Z,15388.00
2018-06-16T07:51:19.276Z,15264.00
2018-06-16T07:52:19.340Z,15300.00
2018-06-16T07:53:19.407Z,15404.00
2018-06-16T07:54:19.472Z,15532.00
2018-06-16T07:55:19.537Z,15468.00
2018-06-16T07:56:19.602Z,15400.00
2018-06-16T07:57:19.818Z,15056.00
2018-06-16T07:58:19.733Z,14528.00
2018-06-16T07:59:19.800Z,14376.00
2018-06-16T08:00:19.864Z,14236.00
2018-06-16T08:01:19.930Z,14240.00
2018-06-16T08:02:19.996Z,14076.00
2018-06-16T08:03:20.062Z,14040.00
2018-06-16T08:04:20.126Z,14072.00
2018-06-16T08:05:20.194Z,14304.00
2018-06-16T08:06:20.260Z,14764.00
2018-06-16T08:07:20.324Z,14996.00
2018-06-16T08:08:20.389Z,15516.00
2018-06-16T08:09:20.456Z,15744.00
2018-06-16T08:10:20.520Z,15920.00
2018-06-16T08:11:20.587Z,16364.00
2018-06-16T08:12:20.651Z,16856.00
2018-06-16T08:13:20.721Z,17000.00
2018-06-16T08:14:20.783Z,16816.00
2018-06-16T08:15:20.850Z,16636.00
2018-06-16T08:16:20.922Z,16704.00
2018-06-16T08:17:20.980Z,17536.00
2018-06-16T08:18:21.047Z,18432.00
2018-06-16T08:19:21.116Z,19136.00
2018-06-16T08:20:21.178Z,19488.00
2018-06-16T08:21:21.245Z,19904.00
2018-06-16T08:22:21.311Z,20544.00
2018-06-16T08:23:21.378Z,20224.00
2018-06-16T08:24:21.444Z,19648.00
2018-06-16T08:25:21.519Z,19872.00
2018-06-16T08:26:21.578Z,19904.00
2018-06-16T08:27:21.644Z,20000.00
2018-06-16T08:28:21.711Z,19840.00
2018-06-16T08:29:21.777Z,19552.00
2018-06-16T08:30:21.847Z,19904.00
2018-06-16T08:31:21.912Z,20480.00
2018-06-16T08:32:21.978Z,20768.00
2018-06-16T08:33:22.046Z,21184.00
2018-06-16T08:34:22.113Z,21728.00
2018-06-16T08:35:22.181Z,21952.00
2018-06-16T08:36:22.521Z,21376.00
2018-06-16T08:37:22.318Z,21632.00
2018-06-16T08:38:22.387Z,22304.00
2018-06-16T08:39:22.450Z,22688.00
2018-06-16T08:40:22.516Z,23136.00
2018-06-16T08:41:22.585Z,23744.00
2018-06-16T08:42:22.653Z,24128.00
2018-06-16T08:43:22.749Z,24000.00
2018-06-16T08:44:22.787Z,23648.00
2018-06-16T08:45:22.856Z,23264.00
2018-06-16T08:46:22.923Z,22720.00
2018-06-16T08:47:23.301Z,22080.00
2018-06-16T08:48:23.060Z,21536.00
2018-06-16T08:49:23.129Z,21472.00
2018-06-16T08:50:23.197Z,21696.00
2018-06-16T08:51:23.269Z,22048.00
2018-06-16T08:52:23.334Z,21888.00
2018-06-16T08:53:23.401Z,21344.00
2018-06-16T08:54:23.471Z,21120.00
2018-06-16T08:55:23.613Z,21184.00
2018-06-16T08:56:23.623Z,20864.00
2018-06-16T08:57:23.675Z,20384.00
2018-06-16T08:58:23.745Z,19808.00
2018-06-16T08:59:23.812Z,19392.00
2018-06-16T09:00:23.898Z,19104.00
2018-06-16T09:01:23.949Z,19040.00
2018-06-16T09:02:24.018Z,19072.00
2018-06-16T09:03:24.090Z,18912.00
2018-06-16T09:04:24.155Z,18880.00
2018-06-16T09:05:24.227Z,19008.00
2018-06-16T09:06:24.293Z,19392.00
2018-06-16T09:07:24.361Z,19680.00
2018-06-16T09:08:24.427Z,19936.00
2018-06-16T09:09:24.497Z,20000.00
2018-06-16T09:10:24.564Z,20128.00
2018-06-16T09:11:24.677Z,20000.00
2018-06-16T09:12:24.702Z,20000.00
2018-06-16T09:13:24.774Z,20000.00
2018-06-16T09:14:24.837Z,20096.00
2018-06-16T09:15:24.907Z,20224.00
2018-06-16T09:16:24.973Z,20096.00
2018-06-16T09:17:25.105Z,19968.00
2018-06-16T09:18:25.109Z,19360.00
2018-06-16T09:19:25.177Z,19072.00
2018-06-16T09:20:25.245Z,18752.00
2018-06-16T09:21:25.314Z,18464.00
2018-06-16T09:22:25.633Z,17984.00
2018-06-16T09:23:25.450Z,17632.00
2018-06-16T09:24:25.517Z,17660.00
2018-06-16T09:25:25.610Z,17556.00
2018-06-16T09:26:25.653Z,17616.00
2018-06-16T09:27:25.722Z,17888.00
2018-06-16T09:28:25.789Z,17984.00
2018-06-16T09:29:25.857Z,18176.00
2018-06-16T09:30:25.926Z,18976.00
2018-06-16T09:31:25.996Z,20000.00
2018-06-16T09:32:26.064Z,20672.00
2018-06-16T09:33:26.130Z,21792.00
2018-06-16T09:34:26.200Z,23296.00
2018-06-16T09:35:26.267Z,23840.00
2018-06-16T09:36:26.334Z,24064.00
2018-06-16T09:37:26.403Z,23968.00
2018-06-16T09:38:26.476Z,23040.00
2018-06-16T09:39:26.541Z,23328.00
2018-06-16T09:40:26.608Z,24960.00
2018-06-16T09:41:26.679Z,26016.00
2018-06-16T09:42:26.768Z,26432.00
2018-06-16T09:43:26.815Z,26816.00
2018-06-16T09:44:27.134Z,26880.00
2018-06-16T09:45:26.954Z,26592.00
2018-06-16T09:46:27.022Z,26304.00
2018-06-16T09:47:27.091Z,26784.00
2018-06-16T09:48:27.161Z,27072.00
2018-06-16T09:49:27.229Z,26336.00
2018-06-16T09:50:27.299Z,26016.00
2018-06-16T09:51:27.367Z,25984.00
2018-06-16T09:52:27.436Z,25344.00
2018-06-16T09:53:27.506Z,26272.00
2018-06-16T09:54:27.579Z,27584.00
2018-06-16T09:55:27.645Z,27232.00
2018-06-16T09:56:27.714Z,28000.00
2018-06-16T09:57:27.785Z,29120.00
2018-06-16T09:58:27.854Z,31200.00
2018-06-16T09:59:27.924Z,33312.00
2018-06-16T10:00:27.993Z,33568.00
2018-06-16T10:01:28.064Z,30528.00
2018-06-16T10:02:28.134Z,27840.00
2018-06-16T10:03:28.205Z,30528.00
2018-06-16T10:04:28.273Z,41280.00
2018-06-16T10:05:28.345Z,25824.00
2018-06-16T10:06:28.565Z,23488.00
2018-06-16T10:07:28.485Z,25120.00
2018-06-16T10:08:28.556Z,27616.00
2018-06-16T10:09:28.651Z,34816.00
2018-06-16T10:10:28.695Z,37760.00
2018-06-16T10:11:28.768Z,36992.00
2018-06-16T10:12:29.086Z,40256.00
2018-06-16T10:13:28.904Z,34080.00
2018-06-16T10:14:28.973Z,38240.00
2018-06-16T10:15:29.044Z,38176.00
2018-06-16T10:16:29.124Z,41856.00
2018-06-16T10:17:29.184Z,76960.00
2018-06-16T10:18:29.861Z,55584.00
2018-06-16T10:19:29.325Z,52480.00
2018-06-16T10:20:29.394Z,52000.00
2018-06-16T10:21:29.466Z,44896.00
2018-06-16T10:22:29.536Z,54176.00
2018-06-16T10:23:29.620Z,44352.00
2018-06-16T10:24:29.676Z,62080.00
2018-06-16T10:25:29.749Z,64064.00
2018-06-16T10:26:29.819Z,60864.00
2018-06-16T10:27:29.890Z,59424.00
2018-06-16T10:28:29.961Z,53408.00
2018-06-16T10:29:30.033Z,50080.00
2018-06-16T10:30:30.104Z,57888.00
2018-06-16T10:31:30.175Z,53280.00
2018-06-16T10:32:30.247Z,55456.00
2018-06-16T10:33:30.319Z,38496.00
2018-06-16T10:34:30.391Z,57984.00
2018-06-16T10:35:30.465Z,38144.00
2018-06-16T10:36:30.539Z,59392.00
2018-06-16T10:37:30.609Z,51840.00
2018-06-16T10:38:30.681Z,61696.00
2018-06-16T10:39:30.754Z,62432.00
2018-06-16T10:40:30.827Z,63808.00
2018-06-16T10:41:30.901Z,56128.00
2018-06-16T10:42:30.973Z,59456.00
2018-06-16T10:43:31.047Z,59520.00
2018-06-16T10:44:31.119Z,57600.00
2018-06-16T10:45:31.195Z,57536.00
2018-06-16T10:46:31.267Z,57344.00
2018-06-16T10:47:31.344Z,57312.00
2018-06-16T10:48:31.416Z,57632.00
2018-06-16T10:49:31.488Z,51904.00
2018-06-16T10:50:31.561Z,47360.00
2018-06-16T10:51:31.636Z,48032.00
2018-06-16T10:52:31.799Z,46112.00
2018-06-16T10:53:31.784Z,48768.00
2018-06-16T10:54:31.859Z,48736.00
2018-06-16T10:55:31.935Z,49216.00
2018-06-16T10:56:32.006Z,49568.00
2018-06-16T10:57:32.080Z,43264.00
2018-06-16T10:58:32.304Z,43712.00
2018-06-16T10:59:32.229Z,40448.00
2018-06-16T11:00:32.315Z,39680.00
2018-06-16T11:01:32.375Z,38720.00
2018-06-16T11:02:32.450Z,36128.00
2018-06-16T11:03:32.522Z,36640.00
2018-06-16T11:04:32.603Z,33056.00
2018-06-16T11:05:32.668Z,33568.00
2018-06-16T11:06:32.742Z,32096.00
2018-06-16T11:07:32.815Z,32544.00
2018-06-16T11:08:32.887Z,32864.00
2018-06-16T11:09:32.960Z,34432.00
2018-06-16T11:10:33.033Z,35904.00
2018-06-16T11:11:33.105Z,35936.00
2018-06-16T11:12:33.177Z,33952.00
2018-06-16T11:13:33.249Z,36352.00
2018-06-16T11:14:33.321Z,37024.00
2018-06-16T11:15:33.395Z,39456.00
2018-06-16T11:16:33.465Z,40704.00
2018-06-16T11:17:33.538Z,39072.00
2018-06-16T11:18:33.608Z,39296.00
2018-06-16T11:19:33.681Z,39520.00
2018-06-16T11:20:33.752Z,41344.00
2018-06-16T11:21:33.823Z,42528.00
2018-06-16T11:22:33.899Z,41088.00
2018-06-16T11:23:33.967Z,42368.00
2018-06-16T11:24:34.038Z,43776.00
2018-06-16T11:25:34.110Z,42368.00
2018-06-16T11:26:34.182Z,40704.00
2018-06-16T11:27:34.253Z,43232.00
2018-06-16T11:28:34.324Z,43328.00
2018-06-16T11:29:34.397Z,43488.00
2018-06-16T11:30:34.469Z,43648.00
2018-06-16T11:31:34.541Z,40352.00
2018-06-16T11:32:34.613Z,38336.00
2018-06-16T11:33:34.684Z,36352.00
2018-06-16T11:34:34.756Z,37312.00
2018-06-16T11:35:34.828Z,37504.00
2018-06-16T11:36:34.901Z,37760.00
2018-06-16T11:37:34.972Z,38048.00
2018-06-16T11:38:35.046Z,38144.00
2018-06-16T11:39:35.116Z,38560.00
2018-06-16T11:40:35.187Z,42976.00
2018-06-16T11:41:35.259Z,47200.00
2018-06-16T11:42:35.331Z,48192.00
2018-06-16T11:43:35.403Z,50144.00
2018-06-16T11:44:35.474Z,46144.00
2018-06-16T11:45:35.547Z,50400.00
2018-06-16T11:46:35.618Z,51264.00
2018-06-16T11:47:35.691Z,41472.00
2018-06-16T11:48:35.765Z,33056.00
2018-06-16T11:49:35.833Z,56032.00
2018-06-16T11:50:35.908Z,54176.00
2018-06-16T11:51:35.982Z,58112.00
2018-06-16T11:52:36.052Z,59968.00
2018-06-16T11:53:36.125Z,60128.00
2018-06-16T11:54:36.198Z,55456.00
2018-06-16T11:55:36.271Z,56832.00
2018-06-16T11:56:36.343Z,49664.00
2018-06-16T11:57:36.441Z,52000.00
2018-06-16T11:58:36.502Z,56896.00
2018-06-16T11:59:36.570Z,56192.00
2018-06-16T12:00:36.635Z,55584.00
2018-06-16T12:01:36.713Z,66272.00
2018-06-16T12:02:37.036Z,62560.00
2018-06-16T12:03:36.858Z,63904.00
2018-06-16T12:04:36.929Z,64320.00
2018-06-16T12:05:37.003Z,68320.00
2018-06-16T12:06:37.076Z,74656.00
2018-06-16T12:07:37.159Z,74464.00
2018-06-16T12:08:37.225Z,83840.00
2018-06-16T12:09:37.295Z,82048.00
2018-06-16T12:10:37.369Z,80832.00
2018-06-16T12:11:37.443Z,76384.00
2018-06-16T12:12:37.515Z,44160.00
2018-06-16T12:13:37.596Z,50016.00
2018-06-16T12:14:37.663Z,39008.00